Messwerte Iringa

Temperatur

Temperatur
°C
1594357200 8.00 8.00 17
1594360800 9.00 9.00 21
1594364400 10.00 10.00 23
1594368000 11.00 11.00 23
1594371600 12.00 12.00
1594375200 13.00 13.00 23
1594378800 14.00 14.00
1594382400 15.00 15.00 23
1594386000 16.00 16.00 22
1594389600 17.00 17.00 21
1594393200 18.00 18.00 21
1594396800 19.00 19.00
1594400400 20.00 20.00 18
1594404000 21.00 21.00 18
1594407600 22.00 22.00 18
1594411200 23.00 23.00 18
1594414800 0.00 0.00
1594418400 1.00 1.00
1594422000 2.00 2.00
1594425600 3.00 3.00 16
1594429200 4.00 4.00
1594432800 5.00 5.00 16
1594436400 6.00 6.00
1594440000 7.00 7.00 15

Aktuellste Messwerte

Wettercharakter
Wetter: freundlich
Temperatur
15 °C
Feuchtigkeit
90 %
Wind
0 km/h, -
Luftdruck
1022 hPa
Messzeit: 11. Juli 2020, 7.00Datenquelle: METAR

Weitere Messstationen in der Nähe

Messstation Temperatur Entfernung
Dodoma 16 °C 167 km
Morogoro 19 °C 229 km
Songea 16 °C 335 km
Daressalam - 391 km
Sansibar 23 °C 415 km
Tabora 16 °C 432 km
Sumbawanga 14 °C 450 km

Wind

Windrichtung Böen Mittelwind
° km/h km/h
1594357200 8.00 7.00 - 8.00 0
1594360800 9.00 8.00 - 9.00 90° 20
1594364400 10.00 9.00 - 10.00 90° 30
1594368000 11.00 10.00 - 11.00 120° 15
1594371600 12.00 11.00 - 12.00
1594375200 13.00 12.00 - 13.00 100° 25
1594378800 14.00 13.00 - 14.00
1594382400 15.00 14.00 - 15.00 70° 20
1594386000 16.00 15.00 - 16.00 90° 20
1594389600 17.00 16.00 - 17.00 150° 20
1594393200 18.00 17.00 - 18.00 180° 20
1594396800 19.00 18.00 - 19.00
1594400400 20.00 19.00 - 20.00 100° 20
1594404000 21.00 20.00 - 21.00 120° 15
1594407600 22.00 21.00 - 22.00 150° 30
1594411200 23.00 22.00 - 23.00 160° 20
1594414800 0.00 23.00 - 0.00
1594418400 1.00 0.00 - 1.00
1594422000 2.00 1.00 - 2.00
1594425600 3.00 2.00 - 3.00 0
1594429200 4.00 3.00 - 4.00
1594432800 5.00 4.00 - 5.00 0
1594436400 6.00 5.00 - 6.00
1594440000 7.00 6.00 - 7.00 0

Ihre Wetterstation

Fehlt Ihre Wetterstation auf unserem Portal?

Schreiben Sie an network@meteonews.ch